createdAt,value
2019-02-19T00:00:53.131Z,7.20
2019-02-19T00:03:22.299Z,7.20
2019-02-19T00:05:51.434Z,7.20
2019-02-19T00:08:20.577Z,7.30
2019-02-19T00:10:50.893Z,7.30
2019-02-19T00:13:19.993Z,7.30
2019-02-19T00:15:49.133Z,7.20
2019-02-19T00:18:18.744Z,7.30
2019-02-19T00:20:48.766Z,7.30
2019-02-19T00:23:19.445Z,7.30
2019-02-19T00:25:48.949Z,7.20
2019-02-19T00:28:18.954Z,7.20
2019-02-19T00:30:49.576Z,7.10
2019-02-19T00:33:19.579Z,7.20
2019-02-19T00:35:49.638Z,7.20
2019-02-19T00:38:19.952Z,7.20
2019-02-19T00:40:50.137Z,7.20
2019-02-19T00:43:28.955Z,7.20
2019-02-19T00:45:59.454Z,7.20
2019-02-19T00:48:28.967Z,7.20
2019-02-19T00:50:58.120Z,7.20
2019-02-19T00:53:28.350Z,7.20
2019-02-19T00:55:57.941Z,7.30
2019-02-19T00:58:27.462Z,7.30
2019-02-19T01:00:56.955Z,7.40
2019-02-19T01:03:26.118Z,7.50
2019-02-19T01:05:55.450Z,7.40
2019-02-19T01:08:24.908Z,7.40
2019-02-19T01:10:54.466Z,7.30
2019-02-19T01:13:23.596Z,7.30
2019-02-19T01:15:52.825Z,7.20
2019-02-19T01:18:23.058Z,7.10
2019-02-19T01:20:52.771Z,7.00
2019-02-19T01:23:22.608Z,7.00
2019-02-19T01:25:51.692Z,6.90
2019-02-19T01:28:21.468Z,7.00
2019-02-19T01:30:51.167Z,7.20
2019-02-19T01:33:21.217Z,7.40
2019-02-19T01:35:51.912Z,7.60
2019-02-19T01:38:22.304Z,7.70
2019-02-19T01:40:51.372Z,7.80
2019-02-19T01:43:21.806Z,7.80
2019-02-19T01:45:51.949Z,7.90
2019-02-19T01:48:22.122Z,8.00
2019-02-19T01:50:52.120Z,8.00
2019-02-19T01:53:22.572Z,8.00
2019-02-19T01:55:52.051Z,8.00
2019-02-19T01:58:22.378Z,8.00
2019-02-19T02:00:52.572Z,8.00
2019-02-19T02:03:22.976Z,8.10
2019-02-19T02:05:52.809Z,8.20
2019-02-19T02:08:22.695Z,8.20
2019-02-19T02:10:52.656Z,8.30
2019-02-19T02:13:22.984Z,8.40
2019-02-19T02:15:52.920Z,8.40
2019-02-19T02:18:23.276Z,8.40
2019-02-19T02:20:54.430Z,8.50
2019-02-19T02:23:24.443Z,8.50
2019-02-19T02:25:53.750Z,8.50
2019-02-19T02:28:23.830Z,8.50
2019-02-19T02:30:54.224Z,8.40
2019-02-19T02:33:24.649Z,8.40
2019-02-19T02:35:54.125Z,8.40
2019-02-19T02:38:23.943Z,8.50
2019-02-19T02:40:55.119Z,8.50
2019-02-19T02:43:24.413Z,8.60
2019-02-19T02:45:54.391Z,8.60
2019-02-19T02:48:24.652Z,8.70
2019-02-19T02:50:56.097Z,8.70
2019-02-19T02:53:25.311Z,8.80
2019-02-19T02:55:54.643Z,8.80
2019-02-19T02:58:25.085Z,8.80
2019-02-19T03:00:54.621Z,8.80
2019-02-19T03:03:23.858Z,8.80
2019-02-19T03:06:16.768Z,8.80
2019-02-19T03:08:45.832Z,8.90
2019-02-19T03:11:37.862Z,8.90
2019-02-19T03:14:07.558Z,8.90
2019-02-19T03:16:36.645Z,8.90
2019-02-19T03:19:05.804Z,8.80
2019-02-19T03:21:34.904Z,8.80
2019-02-19T03:24:04.045Z,8.80
2019-02-19T03:26:33.501Z,8.80
2019-02-19T03:29:02.604Z,8.80
2019-02-19T03:31:32.002Z,8.80
2019-02-19T03:34:01.221Z,8.80
2019-02-19T03:36:30.353Z,8.80
2019-02-19T03:38:59.796Z,8.90
2019-02-19T03:41:29.261Z,8.80
2019-02-19T03:43:58.384Z,8.90
2019-02-19T03:46:27.480Z,8.80
2019-02-19T03:48:57.172Z,8.80
2019-02-19T03:51:27.329Z,8.80
2019-02-19T03:53:56.881Z,8.70
2019-02-19T03:56:27.252Z,8.80
2019-02-19T03:58:56.976Z,8.80
2019-02-19T04:01:27.060Z,8.70
2019-02-19T04:03:57.337Z,8.70
2019-02-19T04:06:27.649Z,8.70
2019-02-19T04:08:57.968Z,8.60
2019-02-19T04:11:27.891Z,8.70
2019-02-19T04:13:58.304Z,8.70
2019-02-19T04:16:27.958Z,8.70
2019-02-19T04:18:58.708Z,8.70
2019-02-19T04:21:28.365Z,8.60
2019-02-19T04:23:58.272Z,8.60
2019-02-19T04:26:28.105Z,8.60
2019-02-19T04:28:58.112Z,8.50
2019-02-19T04:31:28.171Z,8.50
2019-02-19T04:33:58.012Z,8.40
2019-02-19T04:36:27.340Z,8.40
2019-02-19T04:38:58.201Z,8.40
2019-02-19T04:41:27.192Z,8.40
2019-02-19T04:43:56.691Z,8.50
2019-02-19T04:46:31.477Z,8.40
2019-02-19T04:48:56.801Z,8.50
2019-02-19T04:51:25.932Z,8.50
2019-02-19T04:53:55.367Z,8.40
2019-02-19T04:56:24.472Z,8.40
2019-02-19T04:58:53.824Z,8.40
2019-02-19T05:01:22.992Z,8.40
2019-02-19T05:03:52.532Z,8.40
2019-02-19T05:06:21.609Z,8.40
2019-02-19T05:08:51.732Z,8.40
2019-02-19T05:11:20.814Z,8.40
2019-02-19T05:13:49.864Z,8.40
2019-02-19T05:16:19.368Z,8.40
2019-02-19T05:18:48.928Z,8.40
2019-02-19T05:21:18.584Z,8.40
2019-02-19T05:23:48.072Z,8.40
2019-02-19T05:26:17.204Z,8.50
2019-02-19T05:28:46.308Z,8.50
2019-02-19T05:31:15.446Z,8.50
2019-02-19T05:33:44.885Z,8.50
2019-02-19T05:36:15.372Z,8.50
2019-02-19T05:38:44.496Z,8.50
2019-02-19T05:41:13.597Z,8.50
2019-02-19T05:43:42.765Z,8.50
2019-02-19T05:46:12.936Z,8.50
2019-02-19T05:48:42.196Z,8.60
2019-02-19T05:51:11.309Z,8.60
2019-02-19T05:53:40.453Z,8.50
2019-02-19T05:56:11.449Z,8.50
2019-02-19T05:58:40.526Z,8.50
2019-02-19T06:01:09.596Z,8.40
2019-02-19T06:03:39.020Z,8.50
2019-02-19T06:06:08.616Z,8.40
2019-02-19T06:08:37.809Z,8.40
2019-02-19T06:11:07.333Z,8.40
2019-02-19T06:13:37.450Z,8.40
2019-02-19T06:16:06.621Z,8.40
2019-02-19T06:18:35.725Z,8.40
2019-02-19T06:21:05.141Z,8.50
2019-02-19T06:23:34.146Z,8.50
2019-02-19T06:26:03.543Z,8.50
2019-02-19T06:28:32.807Z,8.50
2019-02-19T06:31:02.786Z,8.50
2019-02-19T06:33:32.777Z,8.50
2019-02-19T06:36:02.940Z,8.40
2019-02-19T06:38:32.952Z,8.30
2019-02-19T06:41:03.000Z,8.40
2019-02-19T06:43:32.171Z,8.40
2019-02-19T06:46:01.528Z,8.40
2019-02-19T06:48:31.420Z,8.40
2019-02-19T06:51:00.596Z,8.40
2019-02-19T06:53:30.265Z,8.40
2019-02-19T06:56:00.288Z,8.40
2019-02-19T06:58:30.716Z,8.60
2019-02-19T07:00:59.960Z,8.70
2019-02-19T07:03:41.804Z,8.60
2019-02-19T07:06:11.999Z,8.50
2019-02-19T07:08:41.540Z,8.50
2019-02-19T07:11:11.280Z,8.50
2019-02-19T07:13:40.342Z,8.50
2019-02-19T07:16:09.432Z,8.60
2019-02-19T07:18:38.513Z,8.50
2019-02-19T07:21:07.644Z,8.50
2019-02-19T07:23:36.806Z,8.50
2019-02-19T07:26:06.052Z,8.60
2019-02-19T07:28:35.416Z,8.60
2019-02-19T07:31:05.121Z,8.60
2019-02-19T07:33:36.336Z,8.50
2019-02-19T07:36:05.438Z,8.60
2019-02-19T07:38:35.077Z,8.60
2019-02-19T07:41:05.128Z,8.50
2019-02-19T07:43:35.153Z,8.50
2019-02-19T07:46:05.538Z,8.60
2019-02-19T07:48:35.536Z,8.60
2019-02-19T07:51:05.379Z,8.60
2019-02-19T07:53:35.576Z,8.60
2019-02-19T07:56:05.640Z,8.70
2019-02-19T07:58:37.526Z,8.60
2019-02-19T08:01:06.673Z,8.70
2019-02-19T08:03:35.930Z,8.80
2019-02-19T08:06:06.302Z,8.80
2019-02-19T08:08:36.044Z,8.80
2019-02-19T08:11:06.062Z,8.90
2019-02-19T08:13:36.256Z,8.90
2019-02-19T08:16:07.084Z,9.00
2019-02-19T08:18:36.464Z,9.00
2019-02-19T08:21:06.451Z,9.00
2019-02-19T08:23:37.128Z,9.10
2019-02-19T08:26:07.012Z,9.00
2019-02-19T08:28:37.004Z,8.90
2019-02-19T08:31:06.766Z,8.90
2019-02-19T08:33:36.764Z,8.90
2019-02-19T08:36:06.049Z,9.00
2019-02-19T08:38:35.600Z,9.00
2019-02-19T08:41:05.035Z,9.10
2019-02-19T08:43:34.172Z,9.20
2019-02-19T08:46:03.443Z,9.40
2019-02-19T08:48:32.565Z,9.50
2019-02-19T08:51:02.936Z,9.60
2019-02-19T08:53:32.047Z,9.60
2019-02-19T08:56:01.421Z,9.60
2019-02-19T08:58:30.881Z,9.50
2019-02-19T09:00:59.982Z,9.60
2019-02-19T09:03:29.212Z,9.50
2019-02-19T09:05:58.275Z,9.50
2019-02-19T09:08:27.694Z,9.60
2019-02-19T09:10:56.816Z,10.00
2019-02-19T09:13:26.060Z,10.20
2019-02-19T09:15:55.512Z,10.30
2019-02-19T09:18:24.570Z,10.40
2019-02-19T09:20:54.332Z,10.70
2019-02-19T09:23:23.641Z,10.70
2019-02-19T09:25:52.893Z,10.90
2019-02-19T09:28:22.059Z,11.00
2019-02-19T09:30:51.487Z,11.30
2019-02-19T09:33:20.636Z,11.60
2019-02-19T09:35:49.810Z,11.70
2019-02-19T09:38:19.076Z,11.70
2019-02-19T09:40:48.353Z,11.70
2019-02-19T09:43:18.268Z,11.90
2019-02-19T09:45:47.641Z,12.00
2019-02-19T09:48:16.992Z,12.20
2019-02-19T09:50:46.092Z,12.10
2019-02-19T09:53:15.260Z,12.20
2019-02-19T09:55:44.352Z,12.30
2019-02-19T09:58:13.466Z,12.50
2019-02-19T10:00:42.945Z,12.60
2019-02-19T10:03:12.142Z,12.60
2019-02-19T10:05:41.641Z,12.20
2019-02-19T10:08:10.856Z,12.00
2019-02-19T10:10:40.284Z,11.90
2019-02-19T10:13:10.560Z,11.80
2019-02-19T10:15:41.015Z,11.80
2019-02-19T10:18:10.714Z,11.70
2019-02-19T10:20:40.622Z,11.80
2019-02-19T10:23:10.964Z,11.70
2019-02-19T10:25:41.252Z,12.00
2019-02-19T10:28:11.001Z,12.30
2019-02-19T10:30:41.073Z,12.50
2019-02-19T10:33:11.780Z,12.80
2019-02-19T10:35:41.548Z,12.70
2019-02-19T10:38:11.269Z,12.90
2019-02-19T10:40:41.944Z,12.70
2019-02-19T10:43:11.909Z,12.40
2019-02-19T10:45:42.044Z,12.20
2019-02-19T10:48:18.803Z,12.20
2019-02-19T10:50:42.898Z,12.10
2019-02-19T10:53:12.036Z,12.20
2019-02-19T10:55:43.314Z,12.20
2019-02-19T10:58:12.430Z,12.40
2019-02-19T11:00:42.244Z,12.40
2019-02-19T11:03:13.694Z,12.60
2019-02-19T11:05:42.768Z,12.70
2019-02-19T11:08:12.821Z,12.80
2019-02-19T11:10:42.596Z,13.20
2019-02-19T11:13:12.972Z,13.30
2019-02-19T11:15:42.499Z,13.20
2019-02-19T11:18:12.606Z,13.20
2019-02-19T11:20:41.995Z,13.00
2019-02-19T11:23:11.404Z,12.80
2019-02-19T11:25:40.496Z,12.80
2019-02-19T11:28:09.611Z,13.00
2019-02-19T11:30:39.080Z,12.80
2019-02-19T11:33:08.168Z,12.90
2019-02-19T11:35:37.314Z,12.90
2019-02-19T11:38:06.508Z,12.90
2019-02-19T11:40:35.945Z,12.70
2019-02-19T11:43:05.469Z,12.60
2019-02-19T11:45:34.609Z,12.60
2019-02-19T11:48:04.468Z,12.80
2019-02-19T11:50:33.630Z,12.50
2019-02-19T11:53:02.866Z,12.50
2019-02-19T11:55:31.936Z,12.40
2019-02-19T11:58:01.077Z,12.30
2019-02-19T12:00:37.188Z,12.50
2019-02-19T12:03:06.361Z,12.70
2019-02-19T12:05:35.581Z,12.70
2019-02-19T12:08:04.767Z,12.70
2019-02-19T12:10:34.225Z,12.80
2019-02-19T12:13:03.272Z,12.70
2019-02-19T12:15:35.102Z,12.70
2019-02-19T12:18:04.754Z,12.70
2019-02-19T12:20:34.223Z,12.90
2019-02-19T12:23:03.370Z,12.70
2019-02-19T12:25:33.102Z,12.60
2019-02-19T12:28:02.476Z,12.70
2019-02-19T12:30:31.641Z,12.60
2019-02-19T12:33:00.833Z,12.60
2019-02-19T12:35:30.179Z,12.50
2019-02-19T12:37:59.682Z,12.40
2019-02-19T12:40:29.441Z,12.40
2019-02-19T12:42:58.819Z,12.30
2019-02-19T12:45:28.435Z,12.60
2019-02-19T12:47:57.852Z,12.80
2019-02-19T12:50:27.213Z,12.80
2019-02-19T12:52:56.460Z,12.80
2019-02-19T12:55:25.856Z,12.70
2019-02-19T12:57:54.964Z,12.70
2019-02-19T13:00:25.191Z,12.60
2019-02-19T13:02:55.088Z,12.50
2019-02-19T13:05:24.495Z,12.50
2019-02-19T13:07:53.897Z,12.70
2019-02-19T13:10:23.420Z,13.00
2019-02-19T13:12:55.213Z,13.20
2019-02-19T13:15:24.364Z,13.20
2019-02-19T13:17:53.753Z,13.20
2019-02-19T13:20:23.252Z,13.00
2019-02-19T13:22:52.420Z,13.10
2019-02-19T13:25:21.647Z,13.20
2019-02-19T13:27:50.868Z,13.20
2019-02-19T13:30:20.016Z,13.10
2019-02-19T13:32:51.259Z,13.20
2019-02-19T13:35:20.355Z,13.10
2019-02-19T13:37:51.230Z,13.30
2019-02-19T13:40:20.332Z,13.50
2019-02-19T13:42:52.092Z,13.60
2019-02-19T13:45:21.144Z,13.50
2019-02-19T13:47:50.895Z,13.50
2019-02-19T13:50:21.313Z,13.30
2019-02-19T13:53:14.069Z,13.00
2019-02-19T13:55:46.589Z,13.00
2019-02-19T13:58:16.552Z,13.10
2019-02-19T14:00:47.432Z,13.20
2019-02-19T14:03:16.580Z,13.10
2019-02-19T14:05:45.667Z,13.20
2019-02-19T14:08:15.092Z,13.20
2019-02-19T14:10:44.508Z,13.10
2019-02-19T14:13:13.635Z,12.90
2019-02-19T14:16:01.229Z,12.80
2019-02-19T14:18:51.619Z,12.70
2019-02-19T14:21:39.653Z,12.60
2019-02-19T14:24:31.472Z,12.50
2019-02-19T14:27:17.209Z,12.60
2019-02-19T14:30:15.752Z,12.70
2019-02-19T14:33:06.820Z,12.90
2019-02-19T14:35:53.884Z,12.90
2019-02-19T14:38:41.068Z,12.80
2019-02-19T14:41:33.402Z,12.80
2019-02-19T14:44:31.116Z,12.50
2019-02-19T14:47:09.982Z,12.30
2019-02-19T14:49:53.506Z,12.20
2019-02-19T14:52:51.292Z,12.00
2019-02-19T14:55:45.556Z,12.00
2019-02-19T14:58:32.487Z,12.00
2019-02-19T15:01:33.604Z,12.00
2019-02-19T15:04:40.525Z,11.90
2019-02-19T15:07:28.890Z,11.80
2019-02-19T15:10:17.359Z,11.80
2019-02-19T15:13:15.242Z,11.90
2019-02-19T15:16:06.479Z,11.80
2019-02-19T15:18:54.652Z,11.80
2019-02-19T15:21:52.332Z,11.70
2019-02-19T15:24:47.188Z,11.70
2019-02-19T15:27:25.177Z,11.60
2019-02-19T15:30:15.091Z,11.60
2019-02-19T15:33:12.886Z,11.60
2019-02-19T15:36:16.422Z,11.60
2019-02-19T15:39:10.937Z,11.60
2019-02-19T15:41:52.260Z,11.60
2019-02-19T15:44:40.397Z,11.50
2019-02-19T15:47:28.680Z,11.50
2019-02-19T15:50:16.289Z,11.50
2019-02-19T15:53:13.462Z,11.60
2019-02-19T15:56:01.960Z,12.20
2019-02-19T15:58:49.379Z,12.10
2019-02-19T16:01:46.577Z,11.90
2019-02-19T16:04:38.644Z,11.60
2019-02-19T16:07:17.800Z,11.60
2019-02-19T16:10:17.991Z,11.50
2019-02-19T16:12:58.390Z,11.40
2019-02-19T16:15:42.458Z,11.40
2019-02-19T16:18:31.603Z,11.30
2019-02-19T16:21:18.670Z,11.20
2019-02-19T16:24:19.341Z,11.20
2019-02-19T16:27:07.328Z,11.20
2019-02-19T16:29:56.741Z,11.20
2019-02-19T16:32:52.128Z,11.10
2019-02-19T16:35:40.261Z,11.10
2019-02-19T16:38:31.489Z,11.00
2019-02-19T16:41:21.188Z,11.00
2019-02-19T16:44:11.358Z,11.00
2019-02-19T16:46:55.470Z,11.00
2019-02-19T16:49:43.035Z,10.90
2019-02-19T16:52:31.624Z,10.80
2019-02-19T16:55:13.906Z,10.80
2019-02-19T16:57:48.345Z,10.70
2019-02-19T17:00:42.466Z,10.70
2019-02-19T17:03:30.974Z,10.60
2019-02-19T17:06:22.705Z,10.50
2019-02-19T17:09:05.048Z,10.60
2019-02-19T17:11:50.737Z,10.50
2019-02-19T17:14:51.341Z,10.50
2019-02-19T17:17:42.317Z,10.40
2019-02-19T17:20:29.778Z,10.40
2019-02-19T17:23:18.297Z,10.30
2019-02-19T17:25:53.192Z,10.30
2019-02-19T17:28:47.006Z,10.20
2019-02-19T17:31:23.033Z,10.20
2019-02-19T17:34:02.310Z,10.10
2019-02-19T17:36:47.096Z,10.10
2019-02-19T17:39:34.809Z,10.00
2019-02-19T17:42:18.715Z,10.00
2019-02-19T17:45:00.596Z,10.00
2019-02-19T17:47:41.301Z,9.90
2019-02-19T17:50:25.365Z,9.80
2019-02-19T17:53:23.579Z,9.80
2019-02-19T17:56:06.900Z,9.80
2019-02-19T17:58:55.140Z,9.70
2019-02-19T18:01:43.553Z,9.60
2019-02-19T18:04:24.129Z,9.50
2019-02-19T18:07:02.374Z,9.50
2019-02-19T18:09:41.797Z,9.40
2019-02-19T18:12:42.072Z,9.40
2019-02-19T18:15:29.301Z,9.30
2019-02-19T18:18:32.787Z,9.30
2019-02-19T18:21:01.975Z,9.20
2019-02-19T18:23:31.379Z,9.20
2019-02-19T18:26:00.861Z,9.10
2019-02-19T18:28:31.126Z,9.00
2019-02-19T18:31:01.161Z,9.00
2019-02-19T18:33:31.639Z,9.00
2019-02-19T18:36:01.201Z,8.90
2019-02-19T18:38:32.709Z,8.90
2019-02-19T18:41:02.069Z,8.90
2019-02-19T18:43:31.771Z,8.90
2019-02-19T18:46:01.899Z,8.90
2019-02-19T18:48:32.048Z,8.90
2019-02-19T18:51:02.364Z,8.80
2019-02-19T18:53:32.067Z,8.80
2019-02-19T18:56:02.030Z,8.80
2019-02-19T18:58:32.321Z,8.80
2019-02-19T19:01:02.304Z,8.70
2019-02-19T19:03:32.366Z,8.70
2019-02-19T19:06:02.373Z,8.70
2019-02-19T19:08:32.494Z,8.70
2019-02-19T19:11:03.198Z,8.70
2019-02-19T19:13:32.969Z,8.70
2019-02-19T19:16:03.539Z,8.70
2019-02-19T19:18:33.168Z,8.70
2019-02-19T19:21:08.031Z,8.70
2019-02-19T19:23:33.685Z,8.80
2019-02-19T19:26:03.473Z,8.80
2019-02-19T19:28:37.457Z,8.80
2019-02-19T19:31:06.967Z,8.80
2019-02-19T19:33:36.428Z,8.90
2019-02-19T19:36:05.645Z,8.80
2019-02-19T19:38:34.713Z,8.80
2019-02-19T19:41:04.012Z,8.90
2019-02-19T19:43:34.420Z,8.90
2019-02-19T19:46:04.284Z,8.80
2019-02-19T19:48:34.221Z,8.80
2019-02-19T19:51:04.441Z,8.80
2019-02-19T19:53:34.438Z,8.80
2019-02-19T19:56:04.690Z,8.70
2019-02-19T19:58:34.556Z,8.70
2019-02-19T20:01:04.445Z,8.70
2019-02-19T20:03:34.704Z,8.70
2019-02-19T20:06:04.513Z,8.70
2019-02-19T20:08:34.816Z,8.60
2019-02-19T20:11:05.156Z,8.60
2019-02-19T20:13:34.804Z,8.50
2019-02-19T20:16:04.862Z,8.50
2019-02-19T20:18:39.168Z,8.40
2019-02-19T20:21:06.108Z,8.40
2019-02-19T20:23:35.272Z,8.40
2019-02-19T20:26:05.468Z,8.40
2019-02-19T20:28:35.460Z,8.40
2019-02-19T20:31:05.777Z,8.40
2019-02-19T20:33:35.734Z,8.40
2019-02-19T20:36:05.876Z,8.30
2019-02-19T20:38:35.981Z,8.30
2019-02-19T20:41:07.132Z,8.30
2019-02-19T20:43:36.282Z,8.20
2019-02-19T20:46:06.090Z,8.20
2019-02-19T20:48:37.502Z,8.10
2019-02-19T20:51:06.704Z,8.10
2019-02-19T20:53:36.262Z,8.00
2019-02-19T20:56:06.309Z,8.00
2019-02-19T20:58:36.652Z,8.10
2019-02-19T21:01:06.392Z,8.10
2019-02-19T21:03:36.432Z,8.10
2019-02-19T21:06:05.552Z,8.10
2019-02-19T21:08:34.720Z,8.10
2019-02-19T21:11:03.803Z,8.00
2019-02-19T21:13:33.257Z,8.00
2019-02-19T21:16:02.637Z,8.00
2019-02-19T21:18:31.858Z,8.00
2019-02-19T21:21:01.196Z,8.10
2019-02-19T21:23:30.578Z,8.10
2019-02-19T21:25:59.745Z,8.10
2019-02-19T21:28:29.065Z,8.10
2019-02-19T21:30:58.712Z,8.10
2019-02-19T21:33:28.120Z,8.10
2019-02-19T21:35:58.049Z,8.00
2019-02-19T21:38:27.848Z,8.00
2019-02-19T21:40:57.792Z,8.10
2019-02-19T21:43:27.509Z,8.00
2019-02-19T21:45:56.571Z,8.00
2019-02-19T21:48:25.789Z,7.90
2019-02-19T21:50:55.704Z,7.80
2019-02-19T21:53:24.912Z,7.80
2019-02-19T21:55:53.919Z,7.80
2019-02-19T21:58:23.128Z,7.70
2019-02-19T22:00:52.313Z,7.60
2019-02-19T22:03:21.876Z,7.50
2019-02-19T22:05:52.212Z,7.40
2019-02-19T22:08:21.490Z,7.30
2019-02-19T22:10:51.290Z,7.30
2019-02-19T22:13:20.905Z,7.20
2019-02-19T22:15:50.430Z,7.10
2019-02-19T22:18:20.444Z,6.90
2019-02-19T22:21:14.688Z,6.80
2019-02-19T22:23:44.140Z,6.90
2019-02-19T22:26:13.525Z,6.90
2019-02-19T22:28:43.027Z,6.80
2019-02-19T22:31:12.462Z,6.70
2019-02-19T22:33:41.633Z,6.70
2019-02-19T22:36:11.016Z,6.70
2019-02-19T22:38:40.436Z,6.60
2019-02-19T22:41:12.553Z,6.60
2019-02-19T22:43:41.681Z,6.60
2019-02-19T22:46:10.840Z,6.50
2019-02-19T22:48:40.324Z,6.50
2019-02-19T22:51:10.356Z,6.60
2019-02-19T22:53:55.214Z,6.50
2019-02-19T22:56:30.032Z,6.50
2019-02-19T22:58:59.366Z,6.50
2019-02-19T23:01:34.746Z,6.40
2019-02-19T23:04:03.912Z,6.40
2019-02-19T23:06:33.048Z,6.40
2019-02-19T23:09:04.348Z,6.40
2019-02-19T23:11:33.448Z,6.40
2019-02-19T23:14:02.876Z,6.30
2019-02-19T23:16:33.696Z,6.30
2019-02-19T23:19:03.030Z,6.30
2019-02-19T23:21:32.141Z,6.40
2019-02-19T23:24:01.574Z,6.40
2019-02-19T23:26:30.751Z,6.40
2019-02-19T23:28:59.815Z,6.40
2019-02-19T23:31:28.970Z,6.40
2019-02-19T23:33:58.361Z,6.30
2019-02-19T23:36:52.432Z,6.30
2019-02-19T23:39:21.792Z,6.30
2019-02-19T23:41:50.939Z,6.20
2019-02-19T23:44:20.404Z,6.10
2019-02-19T23:46:49.734Z,6.10
2019-02-19T23:49:18.816Z,6.20
2019-02-19T23:51:48.040Z,6.00
2019-02-19T23:54:17.224Z,6.00
2019-02-19T23:56:46.712Z,6.00
2019-02-19T23:59:16.009Z,5.90
